createdAt,value
2018-09-29T00:00:10.224Z,2.27
2018-09-29T00:01:45.784Z,1.80
2018-09-29T00:03:21.406Z,2.37
2018-09-29T00:04:56.880Z,3.13
2018-09-29T00:06:32.351Z,3.83
2018-09-29T00:08:08.173Z,4.40
2018-09-29T00:09:44.119Z,4.77
2018-09-29T00:11:19.724Z,4.10
2018-09-29T00:12:55.225Z,3.90
2018-09-29T00:14:31.006Z,4.50
2018-09-29T00:16:06.895Z,3.43
2018-09-29T00:17:42.426Z,3.40
2018-09-29T00:19:18.120Z,3.83
2018-09-29T00:20:53.666Z,3.20
2018-09-29T00:22:29.143Z,2.57
2018-09-29T00:24:04.791Z,3.37
2018-09-29T00:25:40.335Z,3.80
2018-09-29T00:27:15.794Z,4.17
2018-09-29T00:28:51.317Z,3.80
2018-09-29T00:30:26.866Z,2.33
2018-09-29T00:32:02.390Z,3.73
2018-09-29T00:33:38.317Z,2.83
2018-09-29T00:35:13.830Z,3.80
2018-09-29T00:36:49.330Z,3.00
2018-09-29T00:38:24.868Z,3.40
2018-09-29T00:40:00.341Z,3.80
2018-09-29T00:41:35.908Z,4.83
2018-09-29T00:43:11.382Z,3.37
2018-09-29T00:44:47.356Z,3.20
2018-09-29T00:46:22.934Z,2.70
2018-09-29T00:47:58.427Z,3.03
2018-09-29T00:49:34.004Z,5.23
2018-09-29T00:51:09.682Z,3.20
2018-09-29T00:52:45.174Z,3.80
2018-09-29T00:54:20.895Z,3.03
2018-09-29T00:55:56.416Z,2.30
2018-09-29T00:57:32.140Z,5.13
2018-09-29T00:59:07.576Z,3.07
2018-09-29T01:00:43.042Z,4.07
2018-09-29T01:02:18.731Z,2.47
2018-09-29T01:03:54.275Z,6.90
2018-09-29T01:05:29.766Z,2.20
2018-09-29T01:07:05.322Z,2.17
2018-09-29T01:08:40.916Z,3.33
2018-09-29T01:10:17.410Z,3.27
2018-09-29T01:11:52.915Z,4.33
2018-09-29T01:13:28.469Z,4.07
2018-09-29T01:15:03.954Z,4.27
2018-09-29T01:16:39.437Z,3.93
2018-09-29T01:18:15.916Z,4.20
2018-09-29T01:19:51.472Z,3.07
2018-09-29T01:21:27.088Z,4.80
2018-09-29T01:23:02.612Z,3.80
2018-09-29T01:24:38.130Z,3.80
2018-09-29T01:26:13.612Z,2.90
2018-09-29T01:27:49.138Z,2.90
2018-09-29T01:29:24.674Z,2.60
2018-09-29T01:31:00.160Z,3.30
2018-09-29T01:32:35.688Z,3.70
2018-09-29T01:34:11.323Z,3.87
2018-09-29T01:35:46.870Z,3.60
2018-09-29T01:37:22.415Z,3.20
2018-09-29T01:38:57.862Z,5.37
2018-09-29T01:40:33.405Z,4.13
2018-09-29T01:42:08.939Z,4.03
2018-09-29T01:43:44.464Z,3.67
2018-09-29T01:45:20.123Z,4.07
2018-09-29T01:46:55.730Z,4.57
2018-09-29T01:48:31.219Z,5.37
2018-09-29T01:50:06.718Z,4.17
2018-09-29T01:51:42.263Z,5.33
2018-09-29T01:53:17.774Z,3.57
2018-09-29T01:54:53.331Z,3.13
2018-09-29T01:56:29.204Z,2.97
2018-09-29T01:58:08.398Z,6.20
2018-09-29T01:59:43.887Z,3.20
2018-09-29T02:01:19.356Z,4.30
2018-09-29T02:02:55.091Z,5.13
2018-09-29T02:04:30.649Z,3.20
2018-09-29T02:06:06.697Z,3.33
2018-09-29T02:07:42.321Z,4.40
2018-09-29T02:09:17.877Z,4.73
2018-09-29T02:10:53.384Z,4.57
2018-09-29T02:12:28.930Z,3.67
2018-09-29T02:14:04.648Z,3.83
2018-09-29T02:15:40.142Z,3.07
2018-09-29T02:17:15.594Z,3.17
2018-09-29T02:18:51.296Z,3.50
2018-09-29T02:20:26.957Z,3.67
2018-09-29T02:22:02.524Z,3.17
2018-09-29T02:23:38.048Z,3.73
2018-09-29T02:25:13.472Z,3.93
2018-09-29T02:26:48.964Z,6.20
2018-09-29T02:28:24.419Z,5.03
2018-09-29T02:29:59.895Z,3.53
2018-09-29T02:31:35.452Z,4.17
2018-09-29T02:33:10.957Z,4.40
2018-09-29T02:34:46.466Z,4.37
2018-09-29T02:36:21.989Z,4.13
2018-09-29T02:37:57.454Z,4.33
2018-09-29T02:39:32.944Z,3.97
2018-09-29T02:41:08.419Z,3.67
2018-09-29T02:42:43.886Z,4.77
2018-09-29T02:44:19.758Z,4.50
2018-09-29T02:45:55.305Z,2.97
2018-09-29T02:47:30.839Z,3.73
2018-09-29T02:49:06.291Z,3.10
2018-09-29T02:50:41.868Z,3.20
2018-09-29T02:52:17.423Z,3.70
2018-09-29T02:53:52.962Z,4.10
2018-09-29T02:55:28.431Z,3.80
2018-09-29T02:57:03.927Z,4.13
2018-09-29T02:58:39.852Z,4.87
2018-09-29T03:00:15.312Z,3.57
2018-09-29T03:01:50.789Z,2.90
2018-09-29T03:03:26.303Z,2.80
2018-09-29T03:05:01.772Z,4.23
2018-09-29T03:06:37.499Z,4.97
2018-09-29T03:08:13.238Z,5.60
2018-09-29T03:09:49.044Z,4.90
2018-09-29T03:11:24.606Z,3.97
2018-09-29T03:13:00.157Z,4.23
2018-09-29T03:14:35.604Z,3.80
2018-09-29T03:16:11.114Z,4.40
2018-09-29T03:17:46.619Z,4.23
2018-09-29T03:19:22.162Z,4.27
2018-09-29T03:20:57.661Z,5.80
2018-09-29T03:22:33.118Z,3.03
2018-09-29T03:24:08.626Z,3.73
2018-09-29T03:25:44.085Z,3.77
2018-09-29T03:27:19.624Z,3.03
2018-09-29T03:28:55.144Z,3.13
2018-09-29T03:30:30.629Z,2.13
2018-09-29T03:32:06.326Z,4.73
2018-09-29T03:33:41.846Z,2.90
2018-09-29T03:35:17.327Z,4.30
2018-09-29T03:36:52.817Z,3.07
2018-09-29T03:38:28.350Z,2.87
2018-09-29T03:40:03.816Z,2.37
2018-09-29T03:41:39.573Z,2.70
2018-09-29T03:43:15.044Z,3.00
2018-09-29T03:44:50.587Z,2.80
2018-09-29T03:46:26.321Z,2.80
2018-09-29T03:48:01.853Z,2.10
2018-09-29T03:49:37.360Z,3.37
2018-09-29T03:51:12.915Z,2.83
2018-09-29T03:52:48.330Z,3.33
2018-09-29T03:54:23.836Z,2.73
2018-09-29T03:55:59.331Z,2.67
2018-09-29T03:57:34.925Z,1.73
2018-09-29T03:59:10.428Z,2.17
2018-09-29T04:00:45.985Z,2.70
2018-09-29T04:02:21.593Z,4.73
2018-09-29T04:03:57.149Z,2.30
2018-09-29T04:05:32.680Z,3.17
2018-09-29T04:07:08.186Z,4.70
2018-09-29T04:08:43.890Z,3.37
2018-09-29T04:10:19.363Z,3.10
2018-09-29T04:11:54.809Z,2.80
2018-09-29T04:13:30.336Z,2.00
2018-09-29T04:15:06.217Z,3.23
2018-09-29T04:16:41.672Z,2.20
2018-09-29T04:18:17.168Z,2.57
2018-09-29T04:19:53.101Z,2.80
2018-09-29T04:21:33.022Z,3.03
2018-09-29T04:23:08.543Z,2.37
2018-09-29T04:24:44.057Z,1.63
2018-09-29T04:26:19.593Z,2.00
2018-09-29T04:27:55.306Z,2.40
2018-09-29T04:29:30.883Z,1.50
2018-09-29T04:31:06.425Z,1.80
2018-09-29T04:32:41.950Z,1.50
2018-09-29T04:34:17.434Z,3.43
2018-09-29T04:35:53.060Z,2.87
2018-09-29T04:37:28.615Z,3.53
2018-09-29T04:39:05.401Z,3.30
2018-09-29T04:40:40.929Z,1.97
2018-09-29T04:42:16.616Z,2.80
2018-09-29T04:43:52.229Z,2.13
2018-09-29T04:45:27.836Z,2.67
2018-09-29T04:47:03.351Z,2.30
2018-09-29T04:48:38.854Z,3.07
2018-09-29T04:50:14.365Z,3.27
2018-09-29T04:51:49.913Z,1.57
2018-09-29T04:53:25.433Z,3.30
2018-09-29T04:55:01.015Z,1.70
2018-09-29T04:56:36.523Z,2.30
2018-09-29T04:58:12.007Z,1.87
2018-09-29T04:59:47.761Z,1.83
2018-09-29T05:01:23.323Z,2.13
2018-09-29T05:02:59.351Z,3.23
2018-09-29T05:04:34.881Z,2.97
2018-09-29T05:06:10.336Z,1.87
2018-09-29T05:07:45.838Z,2.90
2018-09-29T05:09:21.300Z,1.93
2018-09-29T05:10:56.990Z,1.57
2018-09-29T05:12:32.585Z,2.37
2018-09-29T05:14:08.109Z,2.20
2018-09-29T05:15:43.593Z,2.17
2018-09-29T05:17:19.136Z,3.47
2018-09-29T05:18:54.968Z,1.60
2018-09-29T05:20:30.495Z,2.33
2018-09-29T05:22:06.227Z,1.40
2018-09-29T05:23:41.989Z,3.67
2018-09-29T05:25:17.613Z,2.13
2018-09-29T05:26:53.171Z,2.03
2018-09-29T05:28:28.717Z,2.77
2018-09-29T05:30:06.073Z,2.73
2018-09-29T05:31:41.532Z,2.33
2018-09-29T05:33:17.181Z,2.63
2018-09-29T05:34:52.798Z,2.20
2018-09-29T05:36:28.541Z,1.90
2018-09-29T05:38:04.080Z,3.00
2018-09-29T05:39:39.821Z,2.13
2018-09-29T05:41:15.267Z,1.70
2018-09-29T05:42:51.536Z,3.63
2018-09-29T05:44:27.281Z,2.33
2018-09-29T05:46:02.900Z,2.90
2018-09-29T05:47:38.468Z,3.43
2018-09-29T05:49:14.088Z,2.30
2018-09-29T05:50:50.390Z,2.30
2018-09-29T05:52:25.937Z,3.30
2018-09-29T05:54:01.734Z,3.37
2018-09-29T05:55:37.188Z,3.83
2018-09-29T05:57:12.717Z,3.30
2018-09-29T05:58:48.250Z,3.47
2018-09-29T06:00:23.797Z,3.17
2018-09-29T06:01:59.240Z,5.50
2018-09-29T06:03:34.980Z,4.20
2018-09-29T06:05:21.856Z,4.10
2018-09-29T06:06:57.914Z,3.77
2018-09-29T06:08:33.494Z,3.43
2018-09-29T06:10:09.001Z,3.43
2018-09-29T06:11:44.450Z,3.63
2018-09-29T06:13:20.009Z,3.10
2018-09-29T06:14:55.416Z,3.87
2018-09-29T06:16:31.011Z,2.83
2018-09-29T06:18:06.513Z,4.23
2018-09-29T06:19:42.030Z,4.03
2018-09-29T06:21:17.644Z,3.63
2018-09-29T06:22:53.162Z,3.97
2018-09-29T06:24:28.681Z,5.40
2018-09-29T06:26:04.190Z,2.70
2018-09-29T06:27:39.952Z,3.20
2018-09-29T06:29:15.528Z,3.20
2018-09-29T06:30:52.368Z,4.70
2018-09-29T06:32:27.880Z,4.30
2018-09-29T06:34:04.524Z,3.70
2018-09-29T06:35:40.320Z,2.73
2018-09-29T06:37:16.265Z,3.73
2018-09-29T06:38:51.823Z,3.80
2018-09-29T06:40:28.029Z,6.30
2018-09-29T06:42:03.684Z,4.63
2018-09-29T06:43:40.191Z,6.63
2018-09-29T06:45:15.750Z,9.20
2018-09-29T06:46:51.313Z,10.20
2018-09-29T06:48:26.812Z,7.90
2018-09-29T06:50:03.111Z,10.13
2018-09-29T06:51:40.158Z,10.57
2018-09-29T06:53:15.973Z,7.90
2018-09-29T06:54:54.247Z,8.10
2018-09-29T06:56:32.887Z,6.77
2018-09-29T06:58:10.665Z,8.07
2018-09-29T06:59:47.228Z,5.57
2018-09-29T07:01:23.461Z,7.93
2018-09-29T07:03:01.086Z,5.40
2018-09-29T07:04:38.593Z,7.33
2018-09-29T07:06:15.660Z,5.83
2018-09-29T07:07:51.994Z,8.30
2018-09-29T07:09:27.714Z,6.43
2018-09-29T07:11:03.463Z,5.23
2018-09-29T07:12:39.092Z,5.87
2018-09-29T07:14:14.723Z,4.83
2018-09-29T07:15:50.274Z,5.10
2018-09-29T07:17:25.864Z,6.10
2018-09-29T07:19:01.513Z,6.00
2018-09-29T07:20:37.065Z,6.40
2018-09-29T07:22:12.680Z,5.50
2018-09-29T07:23:48.275Z,8.23
2018-09-29T07:25:23.871Z,5.40
2018-09-29T07:26:59.459Z,4.70
2018-09-29T07:28:35.025Z,5.70
2018-09-29T07:30:10.547Z,6.23
2018-09-29T07:31:46.138Z,6.50
2018-09-29T07:33:21.716Z,6.17
2018-09-29T07:34:57.205Z,7.10
2018-09-29T07:36:32.699Z,6.40
2018-09-29T07:38:08.237Z,6.20
2018-09-29T07:39:43.694Z,6.60
2018-09-29T07:41:19.542Z,7.23
2018-09-29T07:42:55.049Z,6.87
2018-09-29T07:44:30.525Z,8.67
2018-09-29T07:46:06.030Z,6.13
2018-09-29T07:47:41.578Z,7.30
2018-09-29T07:49:17.289Z,6.00
2018-09-29T07:50:53.208Z,5.97
2018-09-29T07:52:28.739Z,5.73
2018-09-29T07:54:04.254Z,8.23
2018-09-29T07:55:39.823Z,9.17
2018-09-29T07:57:15.461Z,7.07
2018-09-29T07:58:50.911Z,6.43
2018-09-29T08:00:26.442Z,5.73
2018-09-29T08:02:01.898Z,6.80
2018-09-29T08:03:37.378Z,7.10
2018-09-29T08:05:12.825Z,8.33
2018-09-29T08:06:48.297Z,5.50
2018-09-29T08:08:23.811Z,5.80
2018-09-29T08:10:00.302Z,5.43
2018-09-29T08:11:35.832Z,5.87
2018-09-29T08:13:11.411Z,6.70
2018-09-29T08:14:47.202Z,8.60
2018-09-29T08:16:22.692Z,7.33
2018-09-29T08:17:58.167Z,4.93
2018-09-29T08:19:33.634Z,6.57
2018-09-29T08:21:09.131Z,5.77
2018-09-29T08:22:44.600Z,5.87
2018-09-29T08:24:20.179Z,4.57
2018-09-29T08:25:55.645Z,4.53
2018-09-29T08:27:31.115Z,7.37
2018-09-29T08:29:06.575Z,6.53
2018-09-29T08:30:42.076Z,5.83
2018-09-29T08:32:17.704Z,8.17
2018-09-29T08:33:53.149Z,7.73
2018-09-29T08:35:28.677Z,5.20
2018-09-29T08:37:04.216Z,9.93
2018-09-29T08:38:39.659Z,8.97
2018-09-29T08:40:15.195Z,6.00
2018-09-29T08:41:50.644Z,5.90
2018-09-29T08:43:26.173Z,7.27
2018-09-29T08:45:01.635Z,4.90
2018-09-29T08:46:37.105Z,3.60
2018-09-29T08:48:12.559Z,5.40
2018-09-29T08:49:48.089Z,5.67
2018-09-29T08:51:23.634Z,5.20
2018-09-29T08:52:59.103Z,5.37
2018-09-29T08:54:35.005Z,7.43
2018-09-29T08:56:10.485Z,4.97
2018-09-29T08:57:45.974Z,5.30
2018-09-29T08:59:21.431Z,5.60
2018-09-29T09:00:56.936Z,5.77
2018-09-29T09:02:32.414Z,4.87
2018-09-29T09:04:07.965Z,7.90
2018-09-29T09:05:43.369Z,6.00
2018-09-29T09:07:20.156Z,5.10
2018-09-29T09:08:55.600Z,6.20
2018-09-29T09:10:31.143Z,5.50
2018-09-29T09:12:06.688Z,5.03
2018-09-29T09:13:43.158Z,7.07
2018-09-29T09:15:18.722Z,4.50
2018-09-29T09:16:54.240Z,4.07
2018-09-29T09:18:29.676Z,5.07
2018-09-29T09:20:05.241Z,3.40
2018-09-29T09:21:40.774Z,3.30
2018-09-29T09:23:16.295Z,4.97
2018-09-29T09:24:51.982Z,3.57
2018-09-29T09:26:28.541Z,5.27
2018-09-29T09:28:04.024Z,6.80
2018-09-29T09:29:40.025Z,4.63
2018-09-29T09:31:30.191Z,4.20
2018-09-29T09:33:05.718Z,4.53
2018-09-29T09:34:41.260Z,6.87
2018-09-29T09:36:16.784Z,3.67
2018-09-29T09:37:52.289Z,3.93
2018-09-29T09:39:27.759Z,6.13
2018-09-29T09:41:03.244Z,4.33
2018-09-29T09:42:38.758Z,4.60
2018-09-29T09:44:14.344Z,6.07
2018-09-29T09:45:50.079Z,4.57
2018-09-29T09:47:25.663Z,7.13
2018-09-29T09:49:01.199Z,4.37
2018-09-29T09:50:36.658Z,7.50
2018-09-29T09:52:12.138Z,3.97
2018-09-29T09:53:47.614Z,3.10
2018-09-29T09:55:23.117Z,3.73
2018-09-29T09:56:58.634Z,5.00
2018-09-29T09:58:34.243Z,5.40
2018-09-29T10:00:09.873Z,5.37
2018-09-29T10:01:55.046Z,5.70
2018-09-29T10:03:32.874Z,4.83
2018-09-29T10:05:11.649Z,3.63
2018-09-29T10:06:48.106Z,5.50
2018-09-29T10:08:23.564Z,5.20
2018-09-29T10:09:59.327Z,4.77
2018-09-29T10:11:34.939Z,3.93
2018-09-29T10:13:20.944Z,4.60
2018-09-29T10:14:57.307Z,5.50
2018-09-29T10:16:35.310Z,4.23
2018-09-29T10:18:10.789Z,4.00
2018-09-29T10:19:47.043Z,4.93
2018-09-29T10:21:24.039Z,6.47
2018-09-29T10:22:59.595Z,4.20
2018-09-29T10:24:35.322Z,3.23
2018-09-29T10:26:10.770Z,1.83
2018-09-29T10:27:47.133Z,4.50
2018-09-29T10:29:22.700Z,4.27
2018-09-29T10:30:58.198Z,4.30
2018-09-29T10:32:35.123Z,3.80
2018-09-29T10:34:10.811Z,3.30
2018-09-29T10:35:46.323Z,3.90
2018-09-29T10:37:21.807Z,2.80
2018-09-29T10:39:09.890Z,3.40
2018-09-29T10:40:46.860Z,6.70
2018-09-29T10:42:22.537Z,3.13
2018-09-29T10:43:58.730Z,4.43
2018-09-29T10:45:35.160Z,3.13
2018-09-29T10:47:10.862Z,4.50
2018-09-29T10:48:47.023Z,3.17
2018-09-29T10:50:22.574Z,3.30
2018-09-29T10:52:00.139Z,3.13
2018-09-29T10:53:35.954Z,3.80
2018-09-29T10:55:11.585Z,2.80
2018-09-29T10:56:48.759Z,2.23
2018-09-29T10:58:26.421Z,3.07
2018-09-29T11:00:02.013Z,3.03
2018-09-29T11:01:37.585Z,4.33
2018-09-29T11:03:13.188Z,3.77
2018-09-29T11:04:48.794Z,2.70
2018-09-29T11:06:25.653Z,3.17
2018-09-29T11:08:04.912Z,4.37
2018-09-29T11:09:40.427Z,5.37
2018-09-29T11:11:16.032Z,3.17
2018-09-29T11:12:51.610Z,3.40
2018-09-29T11:14:27.245Z,2.43
2018-09-29T11:16:02.792Z,1.70
2018-09-29T11:17:38.391Z,1.73
2018-09-29T11:19:13.939Z,1.73
2018-09-29T11:20:49.644Z,2.83
2018-09-29T11:22:25.181Z,3.10
2018-09-29T11:24:00.851Z,1.80
2018-09-29T11:25:36.504Z,2.57
2018-09-29T11:27:12.148Z,2.27
2018-09-29T11:28:48.438Z,4.13
2018-09-29T11:30:23.963Z,2.87
2018-09-29T11:31:59.850Z,2.33
2018-09-29T11:33:35.414Z,2.13
2018-09-29T11:35:11.161Z,2.37
2018-09-29T11:36:46.699Z,3.03
2018-09-29T11:38:23.653Z,3.80
2018-09-29T11:39:59.187Z,3.73
2018-09-29T11:41:34.754Z,2.10
2018-09-29T11:43:11.752Z,4.43
2018-09-29T11:44:47.390Z,4.13
2018-09-29T11:46:23.797Z,2.15
2018-09-29T11:47:59.352Z,2.97
2018-09-29T11:49:34.842Z,2.83
2018-09-29T11:51:11.198Z,1.67
2018-09-29T11:52:46.811Z,3.17
2018-09-29T11:54:22.555Z,3.73
2018-09-29T11:55:59.519Z,2.47
2018-09-29T11:57:35.055Z,1.77
2018-09-29T11:59:10.566Z,2.80
2018-09-29T12:00:46.210Z,3.27
2018-09-29T12:02:24.958Z,3.17
2018-09-29T12:04:00.684Z,5.13
2018-09-29T12:05:36.288Z,4.27
2018-09-29T12:07:11.888Z,4.80
2018-09-29T12:08:47.446Z,3.30
2018-09-29T12:10:23.081Z,4.03
2018-09-29T12:11:58.606Z,3.00
2018-09-29T12:13:34.098Z,6.67
2018-09-29T12:15:09.598Z,2.10
2018-09-29T12:16:45.117Z,2.67
2018-09-29T12:18:20.771Z,4.07
2018-09-29T12:19:57.391Z,1.83
2018-09-29T12:21:32.882Z,3.13
2018-09-29T12:23:08.357Z,2.73
2018-09-29T12:24:43.799Z,5.77
2018-09-29T12:26:19.535Z,2.00
2018-09-29T12:27:55.149Z,2.23
2018-09-29T12:31:21.007Z,1.93
2018-09-29T12:32:56.549Z,3.33
2018-09-29T12:34:32.223Z,2.70
2018-09-29T12:36:08.172Z,1.57
2018-09-29T12:37:43.718Z,5.43
2018-09-29T12:39:19.166Z,1.93
2018-09-29T12:41:12.555Z,3.57
2018-09-29T12:42:48.014Z,1.87
2018-09-29T12:44:23.711Z,2.17
2018-09-29T12:45:59.126Z,2.93
2018-09-29T12:47:34.607Z,1.73
2018-09-29T12:49:10.110Z,1.73
2018-09-29T12:50:45.955Z,1.33
2018-09-29T12:52:21.488Z,3.50
2018-09-29T12:53:57.390Z,1.57
2018-09-29T12:55:32.907Z,3.07
2018-09-29T12:57:08.379Z,2.87
2018-09-29T12:58:43.901Z,2.60
2018-09-29T13:00:19.367Z,3.30
2018-09-29T13:01:54.860Z,3.60
2018-09-29T13:03:30.327Z,3.13
2018-09-29T13:05:05.969Z,3.97
2018-09-29T13:06:41.456Z,4.00
2018-09-29T13:08:19.523Z,3.70
2018-09-29T13:09:58.106Z,2.33
2018-09-29T13:11:35.022Z,3.90
2018-09-29T13:13:10.508Z,1.53
2018-09-29T13:14:46.017Z,2.37
2018-09-29T13:16:21.600Z,5.80
2018-09-29T13:17:57.130Z,5.00
2018-09-29T13:19:32.619Z,3.57
2018-09-29T13:21:08.071Z,2.57
2018-09-29T13:22:43.702Z,2.37
2018-09-29T13:24:19.100Z,2.63
2018-09-29T13:25:54.563Z,2.90
2018-09-29T13:27:30.035Z,2.23
2018-09-29T13:29:05.503Z,2.93
2018-09-29T13:30:40.997Z,4.40
2018-09-29T13:32:16.475Z,4.60
2018-09-29T13:33:51.976Z,3.17
2018-09-29T13:35:27.645Z,4.43
2018-09-29T13:37:03.131Z,3.13
2018-09-29T13:38:38.605Z,2.83
2018-09-29T13:40:14.138Z,2.13
2018-09-29T13:41:49.612Z,3.27
2018-09-29T13:43:25.131Z,3.07
2018-09-29T13:45:00.590Z,1.07
2018-09-29T13:46:36.154Z,3.17
2018-09-29T13:48:11.673Z,1.30
2018-09-29T13:49:47.128Z,2.57
2018-09-29T13:51:22.949Z,1.50
2018-09-29T13:52:58.431Z,1.60
2018-09-29T13:54:34.820Z,2.87
2018-09-29T13:56:10.394Z,1.53
2018-09-29T13:57:45.931Z,2.93
2018-09-29T13:59:21.468Z,1.80
2018-09-29T14:00:57.289Z,1.43
2018-09-29T14:02:32.804Z,2.97
2018-09-29T14:04:08.980Z,1.53
2018-09-29T14:05:44.436Z,1.20
2018-09-29T14:07:20.041Z,2.33
2018-09-29T14:08:55.518Z,2.03
2018-09-29T14:10:31.217Z,2.30
2018-09-29T14:12:07.883Z,1.73
2018-09-29T14:13:43.408Z,1.13
2018-09-29T14:15:18.858Z,2.30
2018-09-29T14:16:54.332Z,1.67
2018-09-29T14:18:29.779Z,3.13
2018-09-29T14:20:06.768Z,3.50
2018-09-29T14:21:42.299Z,1.87
2018-09-29T14:23:17.789Z,3.07
2018-09-29T14:24:53.242Z,1.80
2018-09-29T14:26:28.784Z,1.23
2018-09-29T14:28:04.287Z,2.33
2018-09-29T14:29:40.116Z,2.03
2018-09-29T14:31:15.585Z,1.53
2018-09-29T14:32:51.117Z,1.60
2018-09-29T14:34:26.613Z,0.93
2018-09-29T14:36:02.131Z,1.00
2018-09-29T14:37:37.713Z,1.43
2018-09-29T14:39:13.446Z,1.57
2018-09-29T14:40:48.968Z,1.87
2018-09-29T14:42:26.536Z,1.80
2018-09-29T14:44:02.305Z,1.17
2018-09-29T14:45:37.954Z,1.93
2018-09-29T14:47:13.480Z,2.67
2018-09-29T14:48:48.945Z,1.90
2018-09-29T14:50:24.488Z,2.93
2018-09-29T14:52:00.028Z,1.43
2018-09-29T14:53:35.541Z,2.07
2018-09-29T14:55:10.999Z,1.80
2018-09-29T14:56:46.646Z,1.00
2018-09-29T14:58:22.156Z,1.70
2018-09-29T14:59:57.730Z,1.90
2018-09-29T15:01:33.258Z,1.70
2018-09-29T15:03:09.353Z,2.57
2018-09-29T15:04:44.836Z,1.97
2018-09-29T15:06:20.476Z,1.47
2018-09-29T15:07:56.015Z,2.60
2018-09-29T15:09:31.671Z,1.67
2018-09-29T15:11:08.050Z,1.80
2018-09-29T15:12:43.748Z,1.90
2018-09-29T15:14:19.838Z,2.20
2018-09-29T15:15:55.398Z,1.47
2018-09-29T15:17:31.352Z,2.87
2018-09-29T15:19:06.965Z,2.13
2018-09-29T15:20:42.500Z,1.67
2018-09-29T15:22:18.135Z,2.07
2018-09-29T15:23:53.676Z,2.50
2018-09-29T15:25:30.301Z,3.63
2018-09-29T15:27:06.086Z,2.23
2018-09-29T15:28:41.740Z,3.80
2018-09-29T15:30:17.309Z,2.97
2018-09-29T15:31:52.833Z,4.13
2018-09-29T15:33:28.485Z,2.03
2018-09-29T15:35:03.989Z,2.17
2018-09-29T15:36:39.848Z,2.40
2018-09-29T15:38:15.347Z,3.70
2018-09-29T15:39:50.922Z,1.95
2018-09-29T15:41:26.464Z,1.50
2018-09-29T15:43:02.097Z,2.37
2018-09-29T15:44:38.494Z,2.23
2018-09-29T15:46:17.908Z,3.93
2018-09-29T15:47:54.460Z,2.63
2018-09-29T15:49:30.117Z,2.47
2018-09-29T15:51:05.921Z,2.37
2018-09-29T15:52:41.638Z,4.13
2018-09-29T15:54:17.520Z,3.17
2018-09-29T15:55:53.188Z,5.30
2018-09-29T15:57:28.826Z,3.43
2018-09-29T15:59:04.424Z,3.83
2018-09-29T16:00:39.963Z,3.30
2018-09-29T16:02:15.560Z,1.70
2018-09-29T16:03:51.196Z,3.13
2018-09-29T16:05:26.916Z,2.23
2018-09-29T16:07:02.626Z,6.03
2018-09-29T16:08:38.809Z,10.30
2018-09-29T16:10:15.426Z,16.33
2018-09-29T16:11:51.790Z,6.60
2018-09-29T16:13:31.342Z,3.20
2018-09-29T16:15:09.844Z,1.40
2018-09-29T16:16:45.456Z,1.87
2018-09-29T16:18:21.007Z,1.30
2018-09-29T16:19:56.485Z,2.07
2018-09-29T16:21:33.605Z,2.43
2018-09-29T16:23:09.128Z,3.97
2018-09-29T16:24:45.154Z,2.83
2018-09-29T16:26:21.177Z,1.70
2018-09-29T16:27:58.367Z,5.90
2018-09-29T16:29:34.507Z,3.10
2018-09-29T16:31:10.060Z,2.30
2018-09-29T16:32:45.610Z,2.30
2018-09-29T16:34:21.188Z,2.83
2018-09-29T16:35:56.908Z,2.77
2018-09-29T16:37:32.658Z,2.97
2018-09-29T16:39:14.833Z,2.87
2018-09-29T16:40:50.596Z,3.33
2018-09-29T16:42:38.586Z,1.77
2018-09-29T16:44:17.677Z,2.10
2018-09-29T16:45:54.315Z,3.57
2018-09-29T16:47:30.149Z,3.97
2018-09-29T16:49:07.756Z,3.23
2018-09-29T16:50:45.667Z,3.87
2018-09-29T16:52:21.882Z,2.80
2018-09-29T16:54:00.288Z,1.40
2018-09-29T16:55:37.496Z,2.70
2018-09-29T16:57:13.601Z,1.63
2018-09-29T16:58:49.316Z,6.00
2018-09-29T17:00:25.309Z,2.70
2018-09-29T17:02:03.350Z,2.97
2018-09-29T17:03:42.161Z,3.40
2018-09-29T17:05:21.600Z,2.23
2018-09-29T17:06:57.153Z,2.20
2018-09-29T17:08:32.773Z,2.63
2018-09-29T17:10:08.687Z,2.50
2018-09-29T17:11:48.850Z,3.13
2018-09-29T17:13:24.483Z,3.93
2018-09-29T17:15:06.853Z,4.13
2018-09-29T17:16:45.375Z,5.70
2018-09-29T17:18:22.283Z,5.20
2018-09-29T17:19:57.903Z,3.63
2018-09-29T17:21:33.613Z,3.90
2018-09-29T17:23:09.214Z,2.93
2018-09-29T17:24:44.756Z,1.40
2018-09-29T17:26:20.277Z,2.20
2018-09-29T17:27:56.696Z,2.97
2018-09-29T17:29:33.310Z,1.70
2018-09-29T17:31:08.926Z,7.20
2018-09-29T17:32:45.484Z,15.90
2018-09-29T17:34:21.036Z,7.00
2018-09-29T17:36:06.370Z,3.87
2018-09-29T17:37:46.389Z,2.37
2018-09-29T17:39:22.062Z,2.47
2018-09-29T17:40:57.692Z,2.90
2018-09-29T17:42:33.256Z,2.57
2018-09-29T17:44:08.906Z,4.27
2018-09-29T17:45:44.417Z,2.80
2018-09-29T17:47:20.198Z,2.37
2018-09-29T17:48:55.993Z,5.87
2018-09-29T17:50:31.728Z,5.27
2018-09-29T17:52:07.246Z,3.23
2018-09-29T17:53:42.791Z,3.30
2018-09-29T17:55:18.277Z,4.23
2018-09-29T17:56:53.735Z,2.80
2018-09-29T17:58:30.130Z,1.50
2018-09-29T18:00:05.636Z,1.30
2018-09-29T18:01:41.660Z,1.93
2018-09-29T18:03:17.138Z,2.30
2018-09-29T18:04:52.682Z,1.60
2018-09-29T18:06:28.579Z,1.87
2018-09-29T18:08:04.177Z,2.70
2018-09-29T18:09:39.825Z,2.47
2018-09-29T18:11:15.840Z,6.47
2018-09-29T18:12:51.513Z,6.23
2018-09-29T18:14:27.471Z,5.77
2018-09-29T18:16:03.462Z,4.33
2018-09-29T18:17:40.106Z,2.83
2018-09-29T18:19:16.432Z,2.80
2018-09-29T18:20:52.430Z,2.70
2018-09-29T18:22:28.182Z,2.57
2018-09-29T18:24:03.903Z,2.80
2018-09-29T18:25:40.183Z,3.77
2018-09-29T18:27:15.688Z,4.97
2018-09-29T18:28:51.343Z,3.87
2018-09-29T18:30:28.098Z,5.73
2018-09-29T18:32:03.759Z,3.90
2018-09-29T18:33:39.781Z,3.70
2018-09-29T18:35:15.347Z,5.23
2018-09-29T18:36:51.161Z,2.77
2018-09-29T18:38:26.715Z,2.13
2018-09-29T18:40:02.487Z,2.93
2018-09-29T18:41:38.416Z,2.67
2018-09-29T18:43:14.007Z,3.93
2018-09-29T18:44:49.551Z,2.63
2018-09-29T18:46:26.017Z,3.10
2018-09-29T18:48:01.636Z,2.77
2018-09-29T18:49:37.459Z,3.23
2018-09-29T18:51:13.220Z,2.60
2018-09-29T18:52:48.694Z,2.87
2018-09-29T18:54:24.887Z,2.90
2018-09-29T18:56:00.498Z,2.20
2018-09-29T18:57:36.031Z,3.30
2018-09-29T18:59:11.595Z,2.40
2018-09-29T19:00:47.638Z,2.20
2018-09-29T19:02:23.526Z,3.40
2018-09-29T19:03:59.102Z,3.90
2018-09-29T19:05:35.034Z,3.20
2018-09-29T19:07:10.981Z,3.00
2018-09-29T19:08:46.647Z,2.40
2018-09-29T19:10:22.384Z,3.67
2018-09-29T19:11:58.024Z,2.17
2018-09-29T19:13:33.654Z,2.63
2018-09-29T19:15:09.750Z,2.10
2018-09-29T19:16:45.314Z,2.63
2018-09-29T19:18:20.841Z,2.87
2018-09-29T19:19:56.343Z,3.13
2018-09-29T19:21:31.862Z,4.00
2018-09-29T19:23:07.432Z,2.67
2018-09-29T19:24:44.436Z,3.20
2018-09-29T19:26:19.856Z,4.23
2018-09-29T19:27:55.424Z,3.70
2018-09-29T19:29:32.185Z,3.10
2018-09-29T19:31:08.216Z,3.60
2018-09-29T19:32:44.202Z,3.33
2018-09-29T19:34:20.113Z,4.20
2018-09-29T19:35:57.238Z,2.80
2018-09-29T19:37:33.038Z,3.63
2018-09-29T19:39:08.867Z,2.90
2018-09-29T19:40:44.375Z,3.20
2018-09-29T19:42:20.260Z,4.13
2018-09-29T19:43:55.962Z,2.63
2018-09-29T19:45:31.607Z,3.83
2018-09-29T19:47:07.765Z,5.17
2018-09-29T19:48:43.384Z,2.27
2018-09-29T19:50:19.592Z,2.13
2018-09-29T19:51:55.199Z,2.40
2018-09-29T19:53:30.835Z,4.23
2018-09-29T19:55:06.664Z,3.07
2018-09-29T19:56:42.124Z,2.50
2018-09-29T19:58:17.677Z,3.43
2018-09-29T19:59:53.282Z,6.10
2018-09-29T20:01:29.799Z,3.87
2018-09-29T20:03:05.512Z,3.60
2018-09-29T20:04:41.992Z,3.10
2018-09-29T20:06:17.526Z,2.63
2018-09-29T20:07:53.498Z,5.07
2018-09-29T20:09:28.993Z,3.17
2018-09-29T20:11:04.514Z,2.53
2018-09-29T20:12:40.212Z,3.27
2018-09-29T20:14:15.697Z,2.67
2018-09-29T20:15:51.236Z,2.50
2018-09-29T20:17:26.780Z,3.63
2018-09-29T20:19:02.340Z,2.73
2018-09-29T20:20:37.875Z,3.33
2018-09-29T20:22:13.675Z,3.00
2018-09-29T20:23:49.197Z,3.63
2018-09-29T20:25:24.703Z,3.53
2018-09-29T20:27:00.292Z,3.93
2018-09-29T20:28:35.780Z,5.30
2018-09-29T20:30:11.236Z,4.67
2018-09-29T20:31:47.352Z,3.23
2018-09-29T20:33:22.862Z,3.93
2018-09-29T20:34:58.701Z,2.70
2018-09-29T20:36:34.741Z,5.00
2018-09-29T20:38:10.277Z,2.73
2018-09-29T20:39:46.067Z,3.37
2018-09-29T20:41:21.611Z,2.97
2018-09-29T20:42:57.171Z,3.90
2018-09-29T20:44:32.880Z,2.47
2018-09-29T20:46:08.479Z,3.80
2018-09-29T20:47:44.000Z,2.40
2018-09-29T20:49:19.509Z,2.70
2018-09-29T20:50:54.919Z,4.87
2018-09-29T20:52:30.487Z,2.43
2018-09-29T20:54:06.252Z,2.60
2018-09-29T20:55:42.749Z,3.87
2018-09-29T20:57:18.272Z,3.23
2018-09-29T20:58:53.926Z,5.40
2018-09-29T21:00:29.437Z,5.07
2018-09-29T21:02:04.921Z,4.87
2018-09-29T21:03:40.840Z,4.70
2018-09-29T21:05:16.680Z,3.73
2018-09-29T21:06:52.444Z,3.40
2018-09-29T21:08:27.930Z,2.83
2018-09-29T21:10:03.490Z,3.40
2018-09-29T21:11:39.052Z,2.77
2018-09-29T21:13:14.595Z,2.53
2018-09-29T21:14:50.025Z,4.20
2018-09-29T21:16:25.573Z,3.03
2018-09-29T21:18:01.724Z,2.33